sensor_id;sensor_type;location;lat;lon;timestamp;temperature;humidity
15900;DHT22;8048;50.644;6.184;2023-08-24T00:00:38;17.50;99.90
15900;DHT22;8048;50.644;6.184;2023-08-24T00:03:04;17.60;99.90
15900;DHT22;8048;50.644;6.184;2023-08-24T00:05:33;17.50;99.90
15900;DHT22;8048;50.644;6.184;2023-08-24T00:07:59;17.50;99.90
15900;DHT22;8048;50.644;6.184;2023-08-24T00:10:25;17.40;99.90
15900;DHT22;8048;50.644;6.184;2023-08-24T00:12:51;17.40;99.90
15900;DHT22;8048;50.644;6.184;2023-08-24T00:15:16;17.40;99.90
15900;DHT22;8048;50.644;6.184;2023-08-24T00:17:42;17.40;99.90
15900;DHT22;8048;50.644;6.184;2023-08-24T00:20:07;17.40;99.90
15900;DHT22;8048;50.644;6.184;2023-08-24T00:22:36;17.40;99.90
15900;DHT22;8048;50.644;6.184;2023-08-24T00:25:02;17.40;99.90
15900;DHT22;8048;50.644;6.184;2023-08-24T00:27:28;17.30;99.90
15900;DHT22;8048;50.644;6.184;2023-08-24T00:29:53;17.30;99.90
15900;DHT22;8048;50.644;6.184;2023-08-24T00:32:19;17.40;99.90
15900;DHT22;8048;50.644;6.184;2023-08-24T00:34:44;17.40;99.90
15900;DHT22;8048;50.644;6.184;2023-08-24T00:37:10;17.30;99.90
15900;DHT22;8048;50.644;6.184;2023-08-24T00:39:35;17.30;99.90
15900;DHT22;8048;50.644;6.184;2023-08-24T00:42:01;17.30;99.90
15900;DHT22;8048;50.644;6.184;2023-08-24T00:44:27;17.30;99.90
15900;DHT22;8048;50.644;6.184;2023-08-24T00:46:52;17.20;99.90
15900;DHT22;8048;50.644;6.184;2023-08-24T00:49:18;17.10;99.90
15900;DHT22;8048;50.644;6.184;2023-08-24T00:51:43;17.10;99.90
15900;DHT22;8048;50.644;6.184;2023-08-24T00:54:09;17.10;99.90
15900;DHT22;8048;50.644;6.184;2023-08-24T00:56:35;17.10;99.90
15900;DHT22;8048;50.644;6.184;2023-08-24T00:59:00;17.00;99.90
15900;DHT22;8048;50.644;6.184;2023-08-24T01:01:26;17.00;99.90
15900;DHT22;8048;50.644;6.184;2023-08-24T01:03:51;17.10;99.90
15900;DHT22;8048;50.644;6.184;2023-08-24T01:06:17;17.30;99.90
15900;DHT22;8048;50.644;6.184;2023-08-24T01:08:43;17.30;99.90
15900;DHT22;8048;50.644;6.184;2023-08-24T01:11:41;17.40;99.90
15900;DHT22;8048;50.644;6.184;2023-08-24T01:17:00;17.60;99.90
15900;DHT22;8048;50.644;6.184;2023-08-24T01:19:42;17.70;99.90
15900;DHT22;8048;50.644;6.184;2023-08-24T01:27:39;18.00;99.90
15900;DHT22;8048;50.644;6.184;2023-08-24T01:30:05;18.10;99.90
15900;DHT22;8048;50.644;6.184;2023-08-24T01:32:35;18.10;99.90
15900;DHT22;8048;50.644;6.184;2023-08-24T01:35:06;18.20;99.90
15900;DHT22;8048;50.644;6.184;2023-08-24T01:37:33;18.30;99.90
15900;DHT22;8048;50.644;6.184;2023-08-24T01:40:26;18.20;99.90
15900;DHT22;8048;50.644;6.184;2023-08-24T01:42:57;18.30;99.90
15900;DHT22;8048;50.644;6.184;2023-08-24T01:45:28;18.40;99.90
15900;DHT22;8048;50.644;6.184;2023-08-24T01:47:55;18.40;99.90
15900;DHT22;8048;50.644;6.184;2023-08-24T01:50:21;18.30;99.90
15900;DHT22;8048;50.644;6.184;2023-08-24T01:52:47;18.40;99.90
15900;DHT22;8048;50.644;6.184;2023-08-24T01:55:13;18.50;99.90
15900;DHT22;8048;50.644;6.184;2023-08-24T01:57:38;18.60;99.90
15900;DHT22;8048;50.644;6.184;2023-08-24T02:00:05;18.60;99.90
15900;DHT22;8048;50.644;6.184;2023-08-24T02:02:35;18.50;99.90
15900;DHT22;8048;50.644;6.184;2023-08-24T02:05:01;18.60;99.90
15900;DHT22;8048;50.644;6.184;2023-08-24T02:07:26;18.50;99.90
15900;DHT22;8048;50.644;6.184;2023-08-24T02:09:52;18.50;99.90
15900;DHT22;8048;50.644;6.184;2023-08-24T02:12:17;18.40;99.90
15900;DHT22;8048;50.644;6.184;2023-08-24T02:14:43;18.30;99.90
15900;DHT22;8048;50.644;6.184;2023-08-24T02:17:08;18.30;99.90
15900;DHT22;8048;50.644;6.184;2023-08-24T02:19:34;18.40;99.90
15900;DHT22;8048;50.644;6.184;2023-08-24T02:22:00;18.40;99.90
15900;DHT22;8048;50.644;6.184;2023-08-24T02:24:25;18.30;99.90
15900;DHT22;8048;50.644;6.184;2023-08-24T02:26:51;18.20;99.90
15900;DHT22;8048;50.644;6.184;2023-08-24T02:29:16;18.20;99.90
15900;DHT22;8048;50.644;6.184;2023-08-24T02:31:42;18.10;99.90
15900;DHT22;8048;50.644;6.184;2023-08-24T02:34:07;18.10;99.90
15900;DHT22;8048;50.644;6.184;2023-08-24T02:36:33;18.00;99.90
15900;DHT22;8048;50.644;6.184;2023-08-24T02:38:59;18.00;99.90
15900;DHT22;8048;50.644;6.184;2023-08-24T02:41:26;18.00;99.90
15900;DHT22;8048;50.644;6.184;2023-08-24T02:43:51;18.00;99.90
15900;DHT22;8048;50.644;6.184;2023-08-24T02:46:17;17.90;99.90
15900;DHT22;8048;50.644;6.184;2023-08-24T02:48:44;17.90;99.90
15900;DHT22;8048;50.644;6.184;2023-08-24T02:51:10;17.90;99.90
15900;DHT22;8048;50.644;6.184;2023-08-24T02:53:36;17.90;99.90
15900;DHT22;8048;50.644;6.184;2023-08-24T02:56:02;17.80;99.90
15900;DHT22;8048;50.644;6.184;2023-08-24T02:58:27;17.80;99.90
15900;DHT22;8048;50.644;6.184;2023-08-24T03:00:53;17.90;99.90
15900;DHT22;8048;50.644;6.184;2023-08-24T03:03:19;17.90;99.90
15900;DHT22;8048;50.644;6.184;2023-08-24T03:05:55;17.90;99.90
15900;DHT22;8048;50.644;6.184;2023-08-24T03:08:20;17.90;99.90
15900;DHT22;8048;50.644;6.184;2023-08-24T03:10:46;17.80;99.90
15900;DHT22;8048;50.644;6.184;2023-08-24T03:13:11;17.80;99.90
15900;DHT22;8048;50.644;6.184;2023-08-24T03:15:37;17.80;99.90
15900;DHT22;8048;50.644;6.184;2023-08-24T03:18:03;17.70;99.90
15900;DHT22;8048;50.644;6.184;2023-08-24T03:20:28;17.70;99.90
15900;DHT22;8048;50.644;6.184;2023-08-24T03:22:54;17.70;99.90
15900;DHT22;8048;50.644;6.184;2023-08-24T03:25:20;17.70;99.90
15900;DHT22;8048;50.644;6.184;2023-08-24T03:27:46;17.60;99.90
15900;DHT22;8048;50.644;6.184;2023-08-24T03:30:13;17.60;99.90
15900;DHT22;8048;50.644;6.184;2023-08-24T03:32:40;17.60;99.90
15900;DHT22;8048;50.644;6.184;2023-08-24T03:35:06;17.60;99.90
15900;DHT22;8048;50.644;6.184;2023-08-24T03:37:32;17.60;99.90
15900;DHT22;8048;50.644;6.184;2023-08-24T03:39:58;17.60;99.90
15900;DHT22;8048;50.644;6.184;2023-08-24T03:42:23;17.60;99.90
15900;DHT22;8048;50.644;6.184;2023-08-24T03:44:49;17.60;99.90
15900;DHT22;8048;50.644;6.184;2023-08-24T03:47:14;17.60;99.90
15900;DHT22;8048;50.644;6.184;2023-08-24T03:49:43;17.60;99.90
15900;DHT22;8048;50.644;6.184;2023-08-24T03:52:08;17.60;99.90
15900;DHT22;8048;50.644;6.184;2023-08-24T03:54:34;17.60;99.90
15900;DHT22;8048;50.644;6.184;2023-08-24T03:56:59;17.60;99.90
15900;DHT22;8048;50.644;6.184;2023-08-24T03:59:25;17.60;99.90
15900;DHT22;8048;50.644;6.184;2023-08-24T04:01:50;17.60;99.90
15900;DHT22;8048;50.644;6.184;2023-08-24T04:04:16;17.60;99.90
15900;DHT22;8048;50.644;6.184;2023-08-24T04:06:41;17.60;99.90
15900;DHT22;8048;50.644;6.184;2023-08-24T04:09:07;17.60;99.90
15900;DHT22;8048;50.644;6.184;2023-08-24T04:11:33;17.60;99.90
15900;DHT22;8048;50.644;6.184;2023-08-24T04:13:58;17.70;99.90
15900;DHT22;8048;50.644;6.184;2023-08-24T04:16:24;17.80;99.90
15900;DHT22;8048;50.644;6.184;2023-08-24T04:18:49;17.80;99.90
15900;DHT22;8048;50.644;6.184;2023-08-24T04:21:15;17.90;99.90
15900;DHT22;8048;50.644;6.184;2023-08-24T04:23:40;17.90;99.90
15900;DHT22;8048;50.644;6.184;2023-08-24T04:26:13;17.90;99.90
15900;DHT22;8048;50.644;6.184;2023-08-24T04:28:38;17.80;99.90
15900;DHT22;8048;50.644;6.184;2023-08-24T04:31:04;17.80;99.90
15900;DHT22;8048;50.644;6.184;2023-08-24T04:33:29;17.80;99.90
15900;DHT22;8048;50.644;6.184;2023-08-24T04:35:55;17.80;99.90
15900;DHT22;8048;50.644;6.184;2023-08-24T04:38:21;17.70;99.90
15900;DHT22;8048;50.644;6.184;2023-08-24T04:40:54;17.80;99.90
15900;DHT22;8048;50.644;6.184;2023-08-24T04:43:20;17.70;99.90
15900;DHT22;8048;50.644;6.184;2023-08-24T04:45:48;17.80;99.90
15900;DHT22;8048;50.644;6.184;2023-08-24T04:48:14;17.90;99.90
15900;DHT22;8048;50.644;6.184;2023-08-24T04:50:41;17.90;99.90
15900;DHT22;8048;50.644;6.184;2023-08-24T04:53:07;17.90;99.90
15900;DHT22;8048;50.644;6.184;2023-08-24T04:55:32;17.90;99.90
15900;DHT22;8048;50.644;6.184;2023-08-24T04:57:58;17.90;99.90
15900;DHT22;8048;50.644;6.184;2023-08-24T05:00:23;17.80;99.90
15900;DHT22;8048;50.644;6.184;2023-08-24T05:02:49;17.80;99.90
15900;DHT22;8048;50.644;6.184;2023-08-24T05:05:15;17.70;99.90
15900;DHT22;8048;50.644;6.184;2023-08-24T05:07:40;17.70;99.90
15900;DHT22;8048;50.644;6.184;2023-08-24T05:10:07;17.70;99.90
15900;DHT22;8048;50.644;6.184;2023-08-24T05:12:33;17.70;99.90
15900;DHT22;8048;50.644;6.184;2023-08-24T05:15:01;17.70;99.90
15900;DHT22;8048;50.644;6.184;2023-08-24T05:17:27;17.70;99.90
15900;DHT22;8048;50.644;6.184;2023-08-24T05:19:56;17.70;99.90
15900;DHT22;8048;50.644;6.184;2023-08-24T05:22:21;17.60;99.90
15900;DHT22;8048;50.644;6.184;2023-08-24T05:24:47;17.60;99.90
15900;DHT22;8048;50.644;6.184;2023-08-24T05:27:13;17.60;99.90
15900;DHT22;8048;50.644;6.184;2023-08-24T05:29:38;17.60;99.90
15900;DHT22;8048;50.644;6.184;2023-08-24T05:32:04;17.70;99.90
15900;DHT22;8048;50.644;6.184;2023-08-24T05:34:29;17.60;99.90
15900;DHT22;8048;50.644;6.184;2023-08-24T05:36:55;17.60;99.90
15900;DHT22;8048;50.644;6.184;2023-08-24T05:39:20;17.60;99.90
15900;DHT22;8048;50.644;6.184;2023-08-24T05:41:46;17.70;99.90
15900;DHT22;8048;50.644;6.184;2023-08-24T05:44:15;17.70;99.90
15900;DHT22;8048;50.644;6.184;2023-08-24T05:46:42;17.70;99.90
15900;DHT22;8048;50.644;6.184;2023-08-24T05:49:08;17.70;99.90
15900;DHT22;8048;50.644;6.184;2023-08-24T05:51:33;17.80;99.90
15900;DHT22;8048;50.644;6.184;2023-08-24T05:54:00;17.80;99.90
15900;DHT22;8048;50.644;6.184;2023-08-24T05:56:26;17.80;99.90
15900;DHT22;8048;50.644;6.184;2023-08-24T05:58:51;17.90;99.90
15900;DHT22;8048;50.644;6.184;2023-08-24T06:01:17;17.90;99.90
15900;DHT22;8048;50.644;6.184;2023-08-24T06:03:42;17.90;99.90
15900;DHT22;8048;50.644;6.184;2023-08-24T06:06:08;17.90;99.90
15900;DHT22;8048;50.644;6.184;2023-08-24T06:08:35;18.10;99.90
15900;DHT22;8048;50.644;6.184;2023-08-24T06:11:00;18.20;99.90
15900;DHT22;8048;50.644;6.184;2023-08-24T06:13:26;18.40;99.90
15900;DHT22;8048;50.644;6.184;2023-08-24T06:15:52;18.40;99.90
15900;DHT22;8048;50.644;6.184;2023-08-24T06:18:18;18.50;99.90
15900;DHT22;8048;50.644;6.184;2023-08-24T06:20:43;18.60;99.90
15900;DHT22;8048;50.644;6.184;2023-08-24T06:23:09;18.70;99.90
15900;DHT22;8048;50.644;6.184;2023-08-24T06:25:35;18.70;99.90
15900;DHT22;8048;50.644;6.184;2023-08-24T06:28:01;18.80;99.90
15900;DHT22;8048;50.644;6.184;2023-08-24T06:30:29;18.80;99.90
15900;DHT22;8048;50.644;6.184;2023-08-24T06:32:58;18.90;99.90
15900;DHT22;8048;50.644;6.184;2023-08-24T06:35:24;19.00;99.90
15900;DHT22;8048;50.644;6.184;2023-08-24T06:37:49;19.00;99.90
15900;DHT22;8048;50.644;6.184;2023-08-24T06:40:15;19.00;99.90
15900;DHT22;8048;50.644;6.184;2023-08-24T06:42:42;19.10;99.90
15900;DHT22;8048;50.644;6.184;2023-08-24T06:45:09;19.20;99.90
15900;DHT22;8048;50.644;6.184;2023-08-24T06:47:36;19.30;99.90
15900;DHT22;8048;50.644;6.184;2023-08-24T06:50:01;19.30;99.90
15900;DHT22;8048;50.644;6.184;2023-08-24T06:52:27;19.50;99.90
15900;DHT22;8048;50.644;6.184;2023-08-24T06:54:52;19.50;99.90
15900;DHT22;8048;50.644;6.184;2023-08-24T06:57:21;19.60;99.90
15900;DHT22;8048;50.644;6.184;2023-08-24T06:59:46;19.70;99.90
15900;DHT22;8048;50.644;6.184;2023-08-24T07:02:12;19.70;99.90
15900;DHT22;8048;50.644;6.184;2023-08-24T07:04:38;19.80;99.90
15900;DHT22;8048;50.644;6.184;2023-08-24T07:07:08;19.90;99.90
15900;DHT22;8048;50.644;6.184;2023-08-24T07:09:34;20.00;99.90
15900;DHT22;8048;50.644;6.184;2023-08-24T07:12:01;20.00;99.90
15900;DHT22;8048;50.644;6.184;2023-08-24T07:14:27;20.10;99.90
15900;DHT22;8048;50.644;6.184;2023-08-24T07:16:52;20.20;99.90
15900;DHT22;8048;50.644;6.184;2023-08-24T07:19:18;20.30;99.90
15900;DHT22;8048;50.644;6.184;2023-08-24T07:21:43;20.30;99.90
15900;DHT22;8048;50.644;6.184;2023-08-24T07:24:09;20.40;99.90
15900;DHT22;8048;50.644;6.184;2023-08-24T07:26:34;20.60;99.90
15900;DHT22;8048;50.644;6.184;2023-08-24T07:29:00;20.60;99.90
15900;DHT22;8048;50.644;6.184;2023-08-24T07:31:25;20.70;99.90
15900;DHT22;8048;50.644;6.184;2023-08-24T07:33:51;20.80;99.90
15900;DHT22;8048;50.644;6.184;2023-08-24T07:36:16;20.90;99.90
15900;DHT22;8048;50.644;6.184;2023-08-24T07:38:45;21.00;99.90
15900;DHT22;8048;50.644;6.184;2023-08-24T07:41:10;21.10;99.90
15900;DHT22;8048;50.644;6.184;2023-08-24T07:43:37;21.20;99.90
15900;DHT22;8048;50.644;6.184;2023-08-24T07:46:03;21.30;99.90
15900;DHT22;8048;50.644;6.184;2023-08-24T07:48:29;21.40;99.90
15900;DHT22;8048;50.644;6.184;2023-08-24T07:50:55;21.50;99.90
15900;DHT22;8048;50.644;6.184;2023-08-24T07:53:21;21.60;99.90
15900;DHT22;8048;50.644;6.184;2023-08-24T07:55:46;21.70;99.90
15900;DHT22;8048;50.644;6.184;2023-08-24T07:58:12;21.80;99.90
15900;DHT22;8048;50.644;6.184;2023-08-24T08:00:38;22.00;99.90
15900;DHT22;8048;50.644;6.184;2023-08-24T08:03:04;22.10;99.90
15900;DHT22;8048;50.644;6.184;2023-08-24T08:05:29;22.30;99.90
15900;DHT22;8048;50.644;6.184;2023-08-24T08:07:55;22.40;99.90
15900;DHT22;8048;50.644;6.184;2023-08-24T08:10:21;22.60;99.90
15900;DHT22;8048;50.644;6.184;2023-08-24T08:12:46;22.80;99.90
15900;DHT22;8048;50.644;6.184;2023-08-24T08:15:12;22.90;99.90
15900;DHT22;8048;50.644;6.184;2023-08-24T08:17:38;23.10;99.90
15900;DHT22;8048;50.644;6.184;2023-08-24T08:20:04;23.30;99.90
15900;DHT22;8048;50.644;6.184;2023-08-24T08:22:29;23.40;99.90
15900;DHT22;8048;50.644;6.184;2023-08-24T08:24:55;23.50;99.90
15900;DHT22;8048;50.644;6.184;2023-08-24T08:27:22;23.80;99.90
15900;DHT22;8048;50.644;6.184;2023-08-24T08:29:48;23.90;99.70
15900;DHT22;8048;50.644;6.184;2023-08-24T08:32:14;24.10;99.10
15900;DHT22;8048;50.644;6.184;2023-08-24T08:34:39;24.30;99.20
15900;DHT22;8048;50.644;6.184;2023-08-24T08:37:05;24.50;99.10
15900;DHT22;8048;50.644;6.184;2023-08-24T08:39:32;24.70;98.90
15900;DHT22;8048;50.644;6.184;2023-08-24T08:41:57;24.80;98.40
15900;DHT22;8048;50.644;6.184;2023-08-24T08:44:25;25.00;96.80
15900;DHT22;8048;50.644;6.184;2023-08-24T08:46:56;25.20;96.50
15900;DHT22;8048;50.644;6.184;2023-08-24T08:49:22;25.30;95.90
15900;DHT22;8048;50.644;6.184;2023-08-24T08:51:49;25.50;96.40
15900;DHT22;8048;50.644;6.184;2023-08-24T08:54:15;25.60;95.40
15900;DHT22;8048;50.644;6.184;2023-08-24T08:56:41;25.70;95.80
15900;DHT22;8048;50.644;6.184;2023-08-24T08:59:09;25.80;94.50
15900;DHT22;8048;50.644;6.184;2023-08-24T09:01:37;25.80;94.00
15900;DHT22;8048;50.644;6.184;2023-08-24T09:04:04;25.80;94.90
15900;DHT22;8048;50.644;6.184;2023-08-24T09:06:31;25.90;94.50
15900;DHT22;8048;50.644;6.184;2023-08-24T09:08:57;25.90;94.50
15900;DHT22;8048;50.644;6.184;2023-08-24T09:11:23;26.00;94.40
15900;DHT22;8048;50.644;6.184;2023-08-24T09:13:49;26.00;94.10
15900;DHT22;8048;50.644;6.184;2023-08-24T09:16:14;26.10;94.20
15900;DHT22;8048;50.644;6.184;2023-08-24T09:18:45;26.20;94.90
15900;DHT22;8048;50.644;6.184;2023-08-24T09:21:13;26.50;94.00
15900;DHT22;8048;50.644;6.184;2023-08-24T09:23:52;26.90;93.40
15900;DHT22;8048;50.644;6.184;2023-08-24T09:26:30;27.10;93.40
15900;DHT22;8048;50.644;6.184;2023-08-24T09:28:57;27.30;93.30
15900;DHT22;8048;50.644;6.184;2023-08-24T09:31:23;27.50;93.60
15900;DHT22;8048;50.644;6.184;2023-08-24T09:34:02;27.50;93.30
15900;DHT22;8048;50.644;6.184;2023-08-24T09:36:34;27.60;92.80
15900;DHT22;8048;50.644;6.184;2023-08-24T09:39:01;27.60;92.80
15900;DHT22;8048;50.644;6.184;2023-08-24T09:41:40;27.60;91.80
15900;DHT22;8048;50.644;6.184;2023-08-24T09:44:06;27.70;92.30
15900;DHT22;8048;50.644;6.184;2023-08-24T09:46:32;27.70;91.50
15900;DHT22;8048;50.644;6.184;2023-08-24T09:48:57;27.80;93.30
15900;DHT22;8048;50.644;6.184;2023-08-24T09:51:26;27.80;92.60
15900;DHT22;8048;50.644;6.184;2023-08-24T09:53:57;27.90;93.30
15900;DHT22;8048;50.644;6.184;2023-08-24T09:56:25;27.80;92.40
15900;DHT22;8048;50.644;6.184;2023-08-24T09:58:54;27.80;92.30
15900;DHT22;8048;50.644;6.184;2023-08-24T10:01:20;27.90;92.60
15900;DHT22;8048;50.644;6.184;2023-08-24T10:03:51;27.80;92.70
15900;DHT22;8048;50.644;6.184;2023-08-24T10:06:19;27.90;93.50
15900;DHT22;8048;50.644;6.184;2023-08-24T10:08:49;27.80;92.60
15900;DHT22;8048;50.644;6.184;2023-08-24T10:11:24;27.80;93.60
15900;DHT22;8048;50.644;6.184;2023-08-24T10:13:58;27.80;92.60
15900;DHT22;8048;50.644;6.184;2023-08-24T10:16:27;27.70;90.80
15900;DHT22;8048;50.644;6.184;2023-08-24T10:18:54;27.60;91.90
15900;DHT22;8048;50.644;6.184;2023-08-24T10:21:23;27.50;92.70
15900;DHT22;8048;50.644;6.184;2023-08-24T10:23:52;27.50;92.30
15900;DHT22;8048;50.644;6.184;2023-08-24T10:26:18;27.40;92.50
15900;DHT22;8048;50.644;6.184;2023-08-24T10:28:45;27.30;93.60
15900;DHT22;8048;50.644;6.184;2023-08-24T10:31:11;27.20;93.60
15900;DHT22;8048;50.644;6.184;2023-08-24T10:33:38;27.20;94.20
15900;DHT22;8048;50.644;6.184;2023-08-24T10:36:05;27.10;93.10
15900;DHT22;8048;50.644;6.184;2023-08-24T10:38:35;26.90;93.70
15900;DHT22;8048;50.644;6.184;2023-08-24T10:41:04;26.90;93.70
15900;DHT22;8048;50.644;6.184;2023-08-24T10:43:37;26.80;93.60
15900;DHT22;8048;50.644;6.184;2023-08-24T10:46:03;26.80;94.70
15900;DHT22;8048;50.644;6.184;2023-08-24T10:53:44;26.60;96.50
15900;DHT22;8048;50.644;6.184;2023-08-24T10:56:14;26.60;95.20
15900;DHT22;8048;50.644;6.184;2023-08-24T10:58:40;26.50;94.50
15900;DHT22;8048;50.644;6.184;2023-08-24T11:01:06;26.50;94.30
15900;DHT22;8048;50.644;6.184;2023-08-24T11:03:35;26.50;95.00
15900;DHT22;8048;50.644;6.184;2023-08-24T11:06:00;26.40;93.80
15900;DHT22;8048;50.644;6.184;2023-08-24T11:08:45;26.40;94.50
15900;DHT22;8048;50.644;6.184;2023-08-24T11:11:21;26.30;95.40
15900;DHT22;8048;50.644;6.184;2023-08-24T11:14:19;26.20;96.40
15900;DHT22;8048;50.644;6.184;2023-08-24T11:16:47;26.00;97.00
15900;DHT22;8048;50.644;6.184;2023-08-24T11:19:15;25.80;97.50
15900;DHT22;8048;50.644;6.184;2023-08-24T11:21:42;25.60;96.70
15900;DHT22;8048;50.644;6.184;2023-08-24T11:24:15;25.30;98.20
15900;DHT22;8048;50.644;6.184;2023-08-24T11:26:46;24.90;99.40
15900;DHT22;8048;50.644;6.184;2023-08-24T11:29:12;24.60;99.90
15900;DHT22;8048;50.644;6.184;2023-08-24T11:31:38;24.30;99.90
15900;DHT22;8048;50.644;6.184;2023-08-24T11:34:05;24.00;99.90
15900;DHT22;8048;50.644;6.184;2023-08-24T11:36:31;23.70;99.90
15900;DHT22;8048;50.644;6.184;2023-08-24T11:38:59;23.60;99.90
15900;DHT22;8048;50.644;6.184;2023-08-24T11:41:25;23.20;99.90
15900;DHT22;8048;50.644;6.184;2023-08-24T11:43:59;23.20;99.90
15900;DHT22;8048;50.644;6.184;2023-08-24T11:46:25;23.00;99.90
15900;DHT22;8048;50.644;6.184;2023-08-24T11:48:50;22.90;99.90
15900;DHT22;8048;50.644;6.184;2023-08-24T11:51:16;22.80;99.90
15900;DHT22;8048;50.644;6.184;2023-08-24T11:53:43;22.70;99.90
15900;DHT22;8048;50.644;6.184;2023-08-24T11:56:12;22.60;99.90
15900;DHT22;8048;50.644;6.184;2023-08-24T11:58:43;22.50;99.90
15900;DHT22;8048;50.644;6.184;2023-08-24T12:01:10;22.40;99.90
15900;DHT22;8048;50.644;6.184;2023-08-24T12:03:36;22.40;99.90
15900;DHT22;8048;50.644;6.184;2023-08-24T12:06:03;22.30;99.90
15900;DHT22;8048;50.644;6.184;2023-08-24T12:08:38;22.20;99.90
15900;DHT22;8048;50.644;6.184;2023-08-24T12:11:10;22.20;99.90
15900;DHT22;8048;50.644;6.184;2023-08-24T12:13:36;22.00;99.90
15900;DHT22;8048;50.644;6.184;2023-08-24T12:16:02;22.00;99.90
15900;DHT22;8048;50.644;6.184;2023-08-24T12:18:28;21.60;99.90
15900;DHT22;8048;50.644;6.184;2023-08-24T12:20:54;21.40;99.90
15900;DHT22;8048;50.644;6.184;2023-08-24T12:23:20;21.10;99.90
15900;DHT22;8048;50.644;6.184;2023-08-24T12:25:45;20.90;99.90
15900;DHT22;8048;50.644;6.184;2023-08-24T12:28:15;20.80;99.90
15900;DHT22;8048;50.644;6.184;2023-08-24T12:30:51;20.80;99.90
15900;DHT22;8048;50.644;6.184;2023-08-24T12:33:28;21.00;99.90
15900;DHT22;8048;50.644;6.184;2023-08-24T12:35:54;21.00;99.90
15900;DHT22;8048;50.644;6.184;2023-08-24T12:38:21;21.00;99.90
15900;DHT22;8048;50.644;6.184;2023-08-24T12:40:47;21.10;99.90
15900;DHT22;8048;50.644;6.184;2023-08-24T12:43:12;21.20;99.90
15900;DHT22;8048;50.644;6.184;2023-08-24T12:45:39;21.30;99.90
15900;DHT22;8048;50.644;6.184;2023-08-24T12:48:05;21.20;99.90
15900;DHT22;8048;50.644;6.184;2023-08-24T12:50:33;20.90;99.90
15900;DHT22;8048;50.644;6.184;2023-08-24T12:52:58;20.70;99.90
15900;DHT22;8048;50.644;6.184;2023-08-24T12:55:26;20.50;99.90
15900;DHT22;8048;50.644;6.184;2023-08-24T12:57:51;20.40;99.90
15900;DHT22;8048;50.644;6.184;2023-08-24T13:00:18;20.30;99.90
15900;DHT22;8048;50.644;6.184;2023-08-24T13:02:44;20.30;99.90
15900;DHT22;8048;50.644;6.184;2023-08-24T13:05:09;20.50;99.90
15900;DHT22;8048;50.644;6.184;2023-08-24T13:07:35;20.50;99.90
15900;DHT22;8048;50.644;6.184;2023-08-24T13:10:02;20.60;99.90
15900;DHT22;8048;50.644;6.184;2023-08-24T13:12:28;20.50;99.90
15900;DHT22;8048;50.644;6.184;2023-08-24T13:14:54;20.60;99.90
15900;DHT22;8048;50.644;6.184;2023-08-24T13:17:20;20.60;99.90
15900;DHT22;8048;50.644;6.184;2023-08-24T13:19:45;20.80;99.90
15900;DHT22;8048;50.644;6.184;2023-08-24T13:22:11;20.80;99.90
15900;DHT22;8048;50.644;6.184;2023-08-24T13:24:36;20.80;99.90
15900;DHT22;8048;50.644;6.184;2023-08-24T13:27:04;20.70;99.90
15900;DHT22;8048;50.644;6.184;2023-08-24T13:29:29;20.70;99.90
15900;DHT22;8048;50.644;6.184;2023-08-24T13:31:55;20.70;99.90
15900;DHT22;8048;50.644;6.184;2023-08-24T13:34:21;20.60;99.90
15900;DHT22;8048;50.644;6.184;2023-08-24T13:36:46;20.50;99.90
15900;DHT22;8048;50.644;6.184;2023-08-24T13:39:12;20.50;99.90
15900;DHT22;8048;50.644;6.184;2023-08-24T13:41:37;20.40;99.90
15900;DHT22;8048;50.644;6.184;2023-08-24T13:44:03;20.50;99.90
15900;DHT22;8048;50.644;6.184;2023-08-24T13:46:29;20.60;99.90
15900;DHT22;8048;50.644;6.184;2023-08-24T13:48:54;20.60;99.90
15900;DHT22;8048;50.644;6.184;2023-08-24T13:51:20;20.70;99.90
15900;DHT22;8048;50.644;6.184;2023-08-24T13:53:46;20.60;99.90
15900;DHT22;8048;50.644;6.184;2023-08-24T13:56:12;20.50;99.90
15900;DHT22;8048;50.644;6.184;2023-08-24T13:58:37;20.30;99.90
15900;DHT22;8048;50.644;6.184;2023-08-24T14:01:03;20.30;99.90
15900;DHT22;8048;50.644;6.184;2023-08-24T14:03:29;20.30;99.90
15900;DHT22;8048;50.644;6.184;2023-08-24T14:05:58;20.30;99.90
15900;DHT22;8048;50.644;6.184;2023-08-24T14:08:24;20.10;99.90
15900;DHT22;8048;50.644;6.184;2023-08-24T14:10:51;20.10;99.90
15900;DHT22;8048;50.644;6.184;2023-08-24T14:13:16;20.00;99.90
15900;DHT22;8048;50.644;6.184;2023-08-24T14:15:42;19.90;99.90
15900;DHT22;8048;50.644;6.184;2023-08-24T14:18:09;19.90;99.90
15900;DHT22;8048;50.644;6.184;2023-08-24T14:20:34;19.80;99.90
15900;DHT22;8048;50.644;6.184;2023-08-24T14:23:00;19.80;99.90
15900;DHT22;8048;50.644;6.184;2023-08-24T14:25:27;19.70;99.90
15900;DHT22;8048;50.644;6.184;2023-08-24T14:27:52;19.80;99.90
15900;DHT22;8048;50.644;6.184;2023-08-24T14:30:18;19.80;99.90
15900;DHT22;8048;50.644;6.184;2023-08-24T14:32:43;19.70;99.90
15900;DHT22;8048;50.644;6.184;2023-08-24T14:35:09;19.80;99.90
15900;DHT22;8048;50.644;6.184;2023-08-24T14:37:34;19.90;99.90
15900;DHT22;8048;50.644;6.184;2023-08-24T14:40:00;20.10;99.90
15900;DHT22;8048;50.644;6.184;2023-08-24T14:42:25;20.20;99.90
15900;DHT22;8048;50.644;6.184;2023-08-24T14:44:51;20.40;99.90
15900;DHT22;8048;50.644;6.184;2023-08-24T14:47:16;20.40;99.90
15900;DHT22;8048;50.644;6.184;2023-08-24T14:49:42;20.50;99.90
15900;DHT22;8048;50.644;6.184;2023-08-24T14:52:08;20.50;99.90
15900;DHT22;8048;50.644;6.184;2023-08-24T14:54:33;20.40;99.90
15900;DHT22;8048;50.644;6.184;2023-08-24T14:56:59;20.30;99.90
15900;DHT22;8048;50.644;6.184;2023-08-24T14:59:25;20.30;99.90
15900;DHT22;8048;50.644;6.184;2023-08-24T15:01:51;20.10;99.90
15900;DHT22;8048;50.644;6.184;2023-08-24T15:04:17;19.90;99.90
15900;DHT22;8048;50.644;6.184;2023-08-24T15:06:42;19.80;99.90
15900;DHT22;8048;50.644;6.184;2023-08-24T15:09:08;19.70;99.90
15900;DHT22;8048;50.644;6.184;2023-08-24T15:11:33;19.60;99.90
15900;DHT22;8048;50.644;6.184;2023-08-24T15:13:59;19.40;99.90
15900;DHT22;8048;50.644;6.184;2023-08-24T15:16:24;19.40;99.90
15900;DHT22;8048;50.644;6.184;2023-08-24T15:18:50;19.30;99.90
15900;DHT22;8048;50.644;6.184;2023-08-24T15:21:15;19.30;99.90
15900;DHT22;8048;50.644;6.184;2023-08-24T15:23:41;19.20;99.90
15900;DHT22;8048;50.644;6.184;2023-08-24T15:26:06;19.20;99.90
15900;DHT22;8048;50.644;6.184;2023-08-24T15:28:40;19.20;99.90
15900;DHT22;8048;50.644;6.184;2023-08-24T15:31:22;19.20;99.90
15900;DHT22;8048;50.644;6.184;2023-08-24T15:33:48;19.30;99.90
15900;DHT22;8048;50.644;6.184;2023-08-24T15:36:13;19.40;99.90
15900;DHT22;8048;50.644;6.184;2023-08-24T15:38:39;19.30;99.90
15900;DHT22;8048;50.644;6.184;2023-08-24T15:41:04;19.30;99.90
15900;DHT22;8048;50.644;6.184;2023-08-24T15:43:30;19.30;99.90
15900;DHT22;8048;50.644;6.184;2023-08-24T15:45:56;19.20;99.90
15900;DHT22;8048;50.644;6.184;2023-08-24T15:48:21;19.20;99.90
15900;DHT22;8048;50.644;6.184;2023-08-24T15:50:47;19.30;99.90
15900;DHT22;8048;50.644;6.184;2023-08-24T15:53:13;19.30;99.90
15900;DHT22;8048;50.644;6.184;2023-08-24T15:55:39;19.30;99.90